sensor_id;sensor_type;location;lat;lon;timestamp;P1;durP1;ratioP1;P2;durP2;ratioP2
18651;SDS011;9455;54.302;10.124;2022-07-04T00:01:08;3.73;;;2.17;;
18651;SDS011;9455;54.302;10.124;2022-07-04T00:03:35;2.20;;;2.10;;
18651;SDS011;9455;54.302;10.124;2022-07-04T00:06:01;4.33;;;2.07;;
18651;SDS011;9455;54.302;10.124;2022-07-04T00:08:28;1.67;;;1.63;;
18651;SDS011;9455;54.302;10.124;2022-07-04T00:10:56;1.90;;;1.80;;
18651;SDS011;9455;54.302;10.124;2022-07-04T00:13:22;2.77;;;1.70;;
18651;SDS011;9455;54.302;10.124;2022-07-04T00:15:49;8.30;;;1.97;;
18651;SDS011;9455;54.302;10.124;2022-07-04T00:18:15;5.77;;;2.30;;
18651;SDS011;9455;54.302;10.124;2022-07-04T00:20:42;3.23;;;2.30;;
18651;SDS011;9455;54.302;10.124;2022-07-04T00:23:08;2.00;;;1.90;;
18651;SDS011;9455;54.302;10.124;2022-07-04T00:25:35;3.07;;;2.80;;
18651;SDS011;9455;54.302;10.124;2022-07-04T00:28:03;3.47;;;2.10;;
18651;SDS011;9455;54.302;10.124;2022-07-04T00:30:30;2.20;;;2.10;;
18651;SDS011;9455;54.302;10.124;2022-07-04T00:32:56;5.53;;;2.07;;
18651;SDS011;9455;54.302;10.124;2022-07-04T00:35:23;5.27;;;2.13;;
18651;SDS011;9455;54.302;10.124;2022-07-04T00:37:49;4.10;;;2.33;;
18651;SDS011;9455;54.302;10.124;2022-07-04T00:40:16;3.67;;;2.27;;
18651;SDS011;9455;54.302;10.124;2022-07-04T00:42:42;9.50;;;2.40;;
18651;SDS011;9455;54.302;10.124;2022-07-04T00:45:10;6.27;;;2.20;;
18651;SDS011;9455;54.302;10.124;2022-07-04T00:47:37;1.80;;;1.70;;
18651;SDS011;9455;54.302;10.124;2022-07-04T00:50:04;4.67;;;2.47;;
18651;SDS011;9455;54.302;10.124;2022-07-04T00:52:31;2.07;;;1.97;;
18651;SDS011;9455;54.302;10.124;2022-07-04T00:54:57;12.93;;;2.57;;
18651;SDS011;9455;54.302;10.124;2022-07-04T00:57:25;2.17;;;2.07;;
18651;SDS011;9455;54.302;10.124;2022-07-04T00:59:52;2.53;;;2.33;;
18651;SDS011;9455;54.302;10.124;2022-07-04T01:02:20;4.63;;;2.77;;
18651;SDS011;9455;54.302;10.124;2022-07-04T01:04:47;2.77;;;2.57;;
18651;SDS011;9455;54.302;10.124;2022-07-04T01:07:13;9.27;;;2.80;;
18651;SDS011;9455;54.302;10.124;2022-07-04T01:09:40;3.03;;;2.70;;
18651;SDS011;9455;54.302;10.124;2022-07-04T01:12:07;4.10;;;2.40;;
18651;SDS011;9455;54.302;10.124;2022-07-04T01:14:36;2.80;;;2.43;;
18651;SDS011;9455;54.302;10.124;2022-07-04T01:17:03;3.67;;;2.13;;
18651;SDS011;9455;54.302;10.124;2022-07-04T01:19:32;3.20;;;2.57;;
18651;SDS011;9455;54.302;10.124;2022-07-04T01:22:03;2.70;;;2.50;;
18651;SDS011;9455;54.302;10.124;2022-07-04T01:24:32;5.40;;;2.43;;
18651;SDS011;9455;54.302;10.124;2022-07-04T01:26:59;2.70;;;2.60;;
18651;SDS011;9455;54.302;10.124;2022-07-04T01:29:25;6.20;;;3.00;;
18651;SDS011;9455;54.302;10.124;2022-07-04T01:31:52;11.83;;;2.90;;
18651;SDS011;9455;54.302;10.124;2022-07-04T01:34:19;3.67;;;3.37;;
18651;SDS011;9455;54.302;10.124;2022-07-04T01:36:45;10.87;;;3.13;;
18651;SDS011;9455;54.302;10.124;2022-07-04T01:39:13;9.40;;;2.60;;
18651;SDS011;9455;54.302;10.124;2022-07-04T01:41:40;3.03;;;2.70;;
18651;SDS011;9455;54.302;10.124;2022-07-04T01:44:06;5.80;;;2.60;;
18651;SDS011;9455;54.302;10.124;2022-07-04T01:46:33;5.37;;;2.80;;
18651;SDS011;9455;54.302;10.124;2022-07-04T01:48:59;6.90;;;2.90;;
18651;SDS011;9455;54.302;10.124;2022-07-04T01:51:26;2.47;;;2.23;;
18651;SDS011;9455;54.302;10.124;2022-07-04T01:53:52;2.70;;;2.60;;
18651;SDS011;9455;54.302;10.124;2022-07-04T01:56:20;2.30;;;2.20;;
18651;SDS011;9455;54.302;10.124;2022-07-04T01:58:47;2.60;;;2.40;;
18651;SDS011;9455;54.302;10.124;2022-07-04T02:01:13;2.97;;;2.60;;
18651;SDS011;9455;54.302;10.124;2022-07-04T02:03:54;2.83;;;2.53;;
18651;SDS011;9455;54.302;10.124;2022-07-04T02:06:21;5.33;;;2.67;;
18651;SDS011;9455;54.302;10.124;2022-07-04T02:08:48;14.07;;;2.50;;
18651;SDS011;9455;54.302;10.124;2022-07-04T02:11:33;2.53;;;2.40;;
18651;SDS011;9455;54.302;10.124;2022-07-04T02:14:14;4.20;;;2.60;;
18651;SDS011;9455;54.302;10.124;2022-07-04T02:16:40;4.50;;;2.63;;
18651;SDS011;9455;54.302;10.124;2022-07-04T02:19:07;3.30;;;2.83;;
18651;SDS011;9455;54.302;10.124;2022-07-04T02:21:33;8.50;;;3.07;;
18651;SDS011;9455;54.302;10.124;2022-07-04T02:24:00;2.60;;;2.40;;
18651;SDS011;9455;54.302;10.124;2022-07-04T02:26:26;13.43;;;2.97;;
18651;SDS011;9455;54.302;10.124;2022-07-04T02:28:55;2.97;;;2.37;;
18651;SDS011;9455;54.302;10.124;2022-07-04T02:31:21;3.97;;;2.60;;
18651;SDS011;9455;54.302;10.124;2022-07-04T02:33:48;4.60;;;2.53;;
18651;SDS011;9455;54.302;10.124;2022-07-04T02:36:14;4.07;;;2.50;;
18651;SDS011;9455;54.302;10.124;2022-07-04T02:38:41;5.73;;;3.10;;
18651;SDS011;9455;54.302;10.124;2022-07-04T02:41:07;3.90;;;3.00;;
18651;SDS011;9455;54.302;10.124;2022-07-04T02:43:34;4.30;;;2.60;;
18651;SDS011;9455;54.302;10.124;2022-07-04T02:46:02;4.13;;;2.40;;
18651;SDS011;9455;54.302;10.124;2022-07-04T02:48:29;5.10;;;2.80;;
18651;SDS011;9455;54.302;10.124;2022-07-04T02:50:55;4.17;;;2.93;;
18651;SDS011;9455;54.302;10.124;2022-07-04T02:53:22;9.67;;;2.97;;
18651;SDS011;9455;54.302;10.124;2022-07-04T02:55:48;3.73;;;3.20;;
18651;SDS011;9455;54.302;10.124;2022-07-04T02:58:15;6.03;;;3.50;;
18651;SDS011;9455;54.302;10.124;2022-07-04T03:00:41;3.17;;;2.87;;
18651;SDS011;9455;54.302;10.124;2022-07-04T03:03:09;4.60;;;3.40;;
18651;SDS011;9455;54.302;10.124;2022-07-04T03:05:36;5.67;;;2.93;;
18651;SDS011;9455;54.302;10.124;2022-07-04T03:08:02;4.80;;;2.63;;
18651;SDS011;9455;54.302;10.124;2022-07-04T03:10:29;7.07;;;2.80;;
18651;SDS011;9455;54.302;10.124;2022-07-04T03:12:56;2.57;;;2.37;;
18651;SDS011;9455;54.302;10.124;2022-07-04T03:15:22;3.27;;;2.87;;
18651;SDS011;9455;54.302;10.124;2022-07-04T03:17:49;2.93;;;2.70;;
18651;SDS011;9455;54.302;10.124;2022-07-04T03:20:17;3.93;;;2.43;;
18651;SDS011;9455;54.302;10.124;2022-07-04T03:22:44;2.40;;;2.20;;
18651;SDS011;9455;54.302;10.124;2022-07-04T03:25:11;5.23;;;2.30;;
18651;SDS011;9455;54.302;10.124;2022-07-04T03:27:38;2.60;;;2.40;;
18651;SDS011;9455;54.302;10.124;2022-07-04T03:30:04;5.57;;;2.73;;
18651;SDS011;9455;54.302;10.124;2022-07-04T03:32:32;2.80;;;2.70;;
18651;SDS011;9455;54.302;10.124;2022-07-04T03:34:58;2.43;;;2.27;;
18651;SDS011;9455;54.302;10.124;2022-07-04T03:37:26;7.13;;;3.10;;
18651;SDS011;9455;54.302;10.124;2022-07-04T03:39:53;5.33;;;2.60;;
18651;SDS011;9455;54.302;10.124;2022-07-04T03:42:19;9.37;;;2.87;;
18651;SDS011;9455;54.302;10.124;2022-07-04T03:44:46;2.43;;;2.33;;
18651;SDS011;9455;54.302;10.124;2022-07-04T03:47:12;6.83;;;2.43;;
18651;SDS011;9455;54.302;10.124;2022-07-04T03:49:39;3.73;;;2.53;;
18651;SDS011;9455;54.302;10.124;2022-07-04T03:52:06;2.40;;;2.30;;
18651;SDS011;9455;54.302;10.124;2022-07-04T03:54:34;4.20;;;2.83;;
18651;SDS011;9455;54.302;10.124;2022-07-04T03:57:01;4.73;;;3.00;;
18651;SDS011;9455;54.302;10.124;2022-07-04T03:59:27;6.77;;;2.70;;
18651;SDS011;9455;54.302;10.124;2022-07-04T04:01:54;6.47;;;2.50;;
18651;SDS011;9455;54.302;10.124;2022-07-04T04:04:20;3.17;;;2.70;;
18651;SDS011;9455;54.302;10.124;2022-07-04T04:07:04;5.20;;;2.30;;
18651;SDS011;9455;54.302;10.124;2022-07-04T04:09:31;4.03;;;2.37;;
18651;SDS011;9455;54.302;10.124;2022-07-04T04:11:59;2.93;;;2.30;;
18651;SDS011;9455;54.302;10.124;2022-07-04T04:14:25;5.13;;;3.00;;
18651;SDS011;9455;54.302;10.124;2022-07-04T04:16:52;3.17;;;2.20;;
18651;SDS011;9455;54.302;10.124;2022-07-04T04:19:19;2.60;;;2.20;;
18651;SDS011;9455;54.302;10.124;2022-07-04T04:21:46;9.10;;;2.77;;
18651;SDS011;9455;54.302;10.124;2022-07-04T04:24:12;7.53;;;2.40;;
18651;SDS011;9455;54.302;10.124;2022-07-04T04:26:39;3.27;;;2.10;;
18651;SDS011;9455;54.302;10.124;2022-07-04T04:29:07;2.10;;;2.00;;
18651;SDS011;9455;54.302;10.124;2022-07-04T04:31:33;4.37;;;2.33;;
18651;SDS011;9455;54.302;10.124;2022-07-04T04:34:00;2.37;;;2.17;;
18651;SDS011;9455;54.302;10.124;2022-07-04T04:36:27;4.90;;;2.20;;
18651;SDS011;9455;54.302;10.124;2022-07-04T04:38:54;2.87;;;2.13;;
18651;SDS011;9455;54.302;10.124;2022-07-04T04:41:20;10.07;;;2.53;;
18651;SDS011;9455;54.302;10.124;2022-07-04T04:43:47;8.93;;;2.93;;
18651;SDS011;9455;54.302;10.124;2022-07-04T04:46:15;3.67;;;2.43;;
18651;SDS011;9455;54.302;10.124;2022-07-04T04:48:42;3.33;;;2.80;;
18651;SDS011;9455;54.302;10.124;2022-07-04T04:51:08;8.67;;;1.80;;
18651;SDS011;9455;54.302;10.124;2022-07-04T04:53:35;3.10;;;1.87;;
18651;SDS011;9455;54.302;10.124;2022-07-04T04:56:02;7.13;;;2.33;;
18651;SDS011;9455;54.302;10.124;2022-07-04T04:58:29;2.37;;;2.17;;
18651;SDS011;9455;54.302;10.124;2022-07-04T05:00:56;2.70;;;2.13;;
18651;SDS011;9455;54.302;10.124;2022-07-04T05:03:24;5.10;;;2.30;;
18651;SDS011;9455;54.302;10.124;2022-07-04T05:05:50;9.57;;;2.07;;
18651;SDS011;9455;54.302;10.124;2022-07-04T05:08:17;7.37;;;2.20;;
18651;SDS011;9455;54.302;10.124;2022-07-04T05:10:43;3.93;;;2.37;;
18651;SDS011;9455;54.302;10.124;2022-07-04T05:13:10;5.50;;;2.00;;
18651;SDS011;9455;54.302;10.124;2022-07-04T05:15:36;2.20;;;2.10;;
18651;SDS011;9455;54.302;10.124;2022-07-04T05:18:03;2.10;;;2.00;;
18651;SDS011;9455;54.302;10.124;2022-07-04T05:20:31;2.90;;;2.17;;
18651;SDS011;9455;54.302;10.124;2022-07-04T05:22:58;2.60;;;2.07;;
18651;SDS011;9455;54.302;10.124;2022-07-04T05:25:25;3.67;;;1.97;;
18651;SDS011;9455;54.302;10.124;2022-07-04T05:27:51;11.47;;;1.93;;
18651;SDS011;9455;54.302;10.124;2022-07-04T05:30:18;12.87;;;2.13;;
18651;SDS011;9455;54.302;10.124;2022-07-04T05:32:44;1.53;;;1.43;;
18651;SDS011;9455;54.302;10.124;2022-07-04T05:35:11;7.37;;;1.90;;
18651;SDS011;9455;54.302;10.124;2022-07-04T05:37:39;7.53;;;1.73;;
18651;SDS011;9455;54.302;10.124;2022-07-04T05:40:06;2.97;;;1.47;;
18651;SDS011;9455;54.302;10.124;2022-07-04T05:42:33;1.70;;;1.60;;
18651;SDS011;9455;54.302;10.124;2022-07-04T05:45:00;2.80;;;1.50;;
18651;SDS011;9455;54.302;10.124;2022-07-04T05:47:26;6.70;;;1.90;;
18651;SDS011;9455;54.302;10.124;2022-07-04T05:49:53;2.43;;;1.30;;
18651;SDS011;9455;54.302;10.124;2022-07-04T05:52:20;2.80;;;1.20;;
18651;SDS011;9455;54.302;10.124;2022-07-04T05:54:48;2.90;;;1.53;;
18651;SDS011;9455;54.302;10.124;2022-07-04T05:57:14;2.83;;;1.00;;
18651;SDS011;9455;54.302;10.124;2022-07-04T05:59:41;5.97;;;1.30;;
18651;SDS011;9455;54.302;10.124;2022-07-04T06:02:07;2.97;;;1.27;;
18651;SDS011;9455;54.302;10.124;2022-07-04T06:04:34;5.77;;;1.13;;
18651;SDS011;9455;54.302;10.124;2022-07-04T06:07:01;1.10;;;1.00;;
18651;SDS011;9455;54.302;10.124;2022-07-04T06:09:27;12.43;;;1.50;;
18651;SDS011;9455;54.302;10.124;2022-07-04T06:11:55;6.37;;;1.37;;
18651;SDS011;9455;54.302;10.124;2022-07-04T06:14:22;3.20;;;1.33;;
18651;SDS011;9455;54.302;10.124;2022-07-04T06:16:48;7.90;;;1.33;;
18651;SDS011;9455;54.302;10.124;2022-07-04T06:19:15;3.60;;;1.10;;
18651;SDS011;9455;54.302;10.124;2022-07-04T06:21:41;5.33;;;1.33;;
18651;SDS011;9455;54.302;10.124;2022-07-04T06:24:08;5.33;;;1.00;;
18651;SDS011;9455;54.302;10.124;2022-07-04T06:26:35;3.33;;;1.20;;
18651;SDS011;9455;54.302;10.124;2022-07-04T06:29:03;3.70;;;1.17;;
18651;SDS011;9455;54.302;10.124;2022-07-04T06:31:29;5.63;;;1.30;;
18651;SDS011;9455;54.302;10.124;2022-07-04T06:33:56;3.93;;;1.20;;
18651;SDS011;9455;54.302;10.124;2022-07-04T06:36:40;4.10;;;1.10;;
18651;SDS011;9455;54.302;10.124;2022-07-04T06:39:06;2.97;;;1.33;;
18651;SDS011;9455;54.302;10.124;2022-07-04T06:41:33;3.40;;;1.30;;
18651;SDS011;9455;54.302;10.124;2022-07-04T06:44:00;6.53;;;1.37;;
18651;SDS011;9455;54.302;10.124;2022-07-04T06:46:28;2.20;;;1.37;;
18651;SDS011;9455;54.302;10.124;2022-07-04T06:48:54;3.23;;;1.50;;
18651;SDS011;9455;54.302;10.124;2022-07-04T06:51:21;7.83;;;1.57;;
18651;SDS011;9455;54.302;10.124;2022-07-04T06:53:47;7.40;;;1.30;;
18651;SDS011;9455;54.302;10.124;2022-07-04T06:56:14;2.20;;;1.07;;
18651;SDS011;9455;54.302;10.124;2022-07-04T06:58:41;6.97;;;1.80;;
18651;SDS011;9455;54.302;10.124;2022-07-04T07:01:07;2.23;;;1.00;;
18651;SDS011;9455;54.302;10.124;2022-07-04T07:03:35;4.33;;;1.20;;
18651;SDS011;9455;54.302;10.124;2022-07-04T07:06:02;3.37;;;1.23;;
18651;SDS011;9455;54.302;10.124;2022-07-04T07:08:28;7.13;;;1.30;;
18651;SDS011;9455;54.302;10.124;2022-07-04T07:10:55;1.07;;;0.90;;
18651;SDS011;9455;54.302;10.124;2022-07-04T07:13:22;6.17;;;1.10;;
18651;SDS011;9455;54.302;10.124;2022-07-04T07:15:49;3.93;;;1.00;;
18651;SDS011;9455;54.302;10.124;2022-07-04T07:18:15;7.37;;;1.40;;
18651;SDS011;9455;54.302;10.124;2022-07-04T07:20:43;2.03;;;1.10;;
18651;SDS011;9455;54.302;10.124;2022-07-04T07:23:10;1.30;;;1.20;;
18651;SDS011;9455;54.302;10.124;2022-07-04T07:25:37;2.43;;;1.00;;
18651;SDS011;9455;54.302;10.124;2022-07-04T07:28:03;2.00;;;1.10;;
18651;SDS011;9455;54.302;10.124;2022-07-04T07:30:30;2.50;;;1.33;;
18651;SDS011;9455;54.302;10.124;2022-07-04T07:32:57;3.40;;;1.20;;
18651;SDS011;9455;54.302;10.124;2022-07-04T07:35:23;3.00;;;1.00;;
18651;SDS011;9455;54.302;10.124;2022-07-04T07:37:51;4.53;;;1.20;;
18651;SDS011;9455;54.302;10.124;2022-07-04T07:40:18;6.20;;;1.00;;
18651;SDS011;9455;54.302;10.124;2022-07-04T07:42:44;1.80;;;0.73;;
18651;SDS011;9455;54.302;10.124;2022-07-04T07:45:11;2.77;;;0.97;;
18651;SDS011;9455;54.302;10.124;2022-07-04T07:47:37;1.83;;;1.30;;
18651;SDS011;9455;54.302;10.124;2022-07-04T07:50:04;2.33;;;1.10;;
18651;SDS011;9455;54.302;10.124;2022-07-04T07:52:31;4.27;;;1.00;;
18651;SDS011;9455;54.302;10.124;2022-07-04T07:54:59;1.27;;;0.97;;
18651;SDS011;9455;54.302;10.124;2022-07-04T07:57:26;3.67;;;1.23;;
18651;SDS011;9455;54.302;10.124;2022-07-04T07:59:53;3.97;;;0.83;;
18651;SDS011;9455;54.302;10.124;2022-07-04T08:02:19;2.70;;;0.97;;
18651;SDS011;9455;54.302;10.124;2022-07-04T08:05:06;1.33;;;1.10;;
18651;SDS011;9455;54.302;10.124;2022-07-04T08:07:33;7.10;;;1.20;;
18651;SDS011;9455;54.302;10.124;2022-07-04T08:10:00;4.43;;;1.20;;
18651;SDS011;9455;54.302;10.124;2022-07-04T08:12:27;7.13;;;0.60;;
18651;SDS011;9455;54.302;10.124;2022-07-04T08:14:54;7.20;;;1.40;;
18651;SDS011;9455;54.302;10.124;2022-07-04T08:17:20;4.90;;;0.80;;
18651;SDS011;9455;54.302;10.124;2022-07-04T08:19:47;1.90;;;1.20;;
18651;SDS011;9455;54.302;10.124;2022-07-04T08:22:15;1.50;;;0.60;;
18651;SDS011;9455;54.302;10.124;2022-07-04T08:24:41;0.60;;;0.60;;
18651;SDS011;9455;54.302;10.124;2022-07-04T08:27:10;2.43;;;0.60;;
18651;SDS011;9455;54.302;10.124;2022-07-04T08:29:38;1.40;;;0.70;;
18651;SDS011;9455;54.302;10.124;2022-07-04T08:32:04;2.20;;;0.90;;
18651;SDS011;9455;54.302;10.124;2022-07-04T08:34:32;1.07;;;0.97;;
18651;SDS011;9455;54.302;10.124;2022-07-04T08:36:59;3.40;;;0.73;;
18651;SDS011;9455;54.302;10.124;2022-07-04T08:39:26;5.30;;;1.03;;
18651;SDS011;9455;54.302;10.124;2022-07-04T08:41:53;0.70;;;0.70;;
18651;SDS011;9455;54.302;10.124;2022-07-04T08:44:27;0.73;;;0.60;;
18651;SDS011;9455;54.302;10.124;2022-07-04T08:46:54;2.87;;;0.53;;
18651;SDS011;9455;54.302;10.124;2022-07-04T08:49:21;3.70;;;0.90;;
18651;SDS011;9455;54.302;10.124;2022-07-04T08:51:52;4.10;;;1.00;;
18651;SDS011;9455;54.302;10.124;2022-07-04T08:54:21;1.53;;;0.57;;
18651;SDS011;9455;54.302;10.124;2022-07-04T08:57:07;2.47;;;0.90;;
18651;SDS011;9455;54.302;10.124;2022-07-04T08:59:53;1.30;;;1.00;;
18651;SDS011;9455;54.302;10.124;2022-07-04T09:02:20;4.93;;;0.97;;
18651;SDS011;9455;54.302;10.124;2022-07-04T09:04:48;1.67;;;0.50;;
18651;SDS011;9455;54.302;10.124;2022-07-04T09:07:16;1.97;;;1.53;;
18651;SDS011;9455;54.302;10.124;2022-07-04T09:09:43;2.27;;;0.60;;
18651;SDS011;9455;54.302;10.124;2022-07-04T09:12:11;0.97;;;0.50;;
18651;SDS011;9455;54.302;10.124;2022-07-04T09:14:38;3.80;;;0.57;;
18651;SDS011;9455;54.302;10.124;2022-07-04T09:17:07;1.33;;;0.43;;
18651;SDS011;9455;54.302;10.124;2022-07-04T09:19:34;3.17;;;0.70;;
18651;SDS011;9455;54.302;10.124;2022-07-04T09:22:04;0.40;;;0.40;;
18651;SDS011;9455;54.302;10.124;2022-07-04T09:24:44;2.13;;;0.57;;
18651;SDS011;9455;54.302;10.124;2022-07-04T09:27:11;0.43;;;0.43;;
18651;SDS011;9455;54.302;10.124;2022-07-04T09:29:39;1.83;;;0.50;;
18651;SDS011;9455;54.302;10.124;2022-07-04T09:32:27;0.80;;;0.40;;
18651;SDS011;9455;54.302;10.124;2022-07-04T09:34:59;1.87;;;0.77;;
18651;SDS011;9455;54.302;10.124;2022-07-04T09:37:33;1.70;;;0.70;;
18651;SDS011;9455;54.302;10.124;2022-07-04T09:40:00;1.77;;;0.80;;
18651;SDS011;9455;54.302;10.124;2022-07-04T09:42:33;0.53;;;0.53;;
18651;SDS011;9455;54.302;10.124;2022-07-04T09:45:03;0.93;;;0.60;;
18651;SDS011;9455;54.302;10.124;2022-07-04T09:47:33;3.47;;;0.67;;
18651;SDS011;9455;54.302;10.124;2022-07-04T09:50:00;1.00;;;0.70;;
18651;SDS011;9455;54.302;10.124;2022-07-04T09:52:28;1.37;;;0.57;;
18651;SDS011;9455;54.302;10.124;2022-07-04T09:54:56;1.30;;;0.60;;
18651;SDS011;9455;54.302;10.124;2022-07-04T09:57:24;3.07;;;0.80;;
18651;SDS011;9455;54.302;10.124;2022-07-04T09:59:50;0.80;;;0.80;;
18651;SDS011;9455;54.302;10.124;2022-07-04T10:02:17;0.80;;;0.80;;
18651;SDS011;9455;54.302;10.124;2022-07-04T10:04:45;1.40;;;0.73;;
18651;SDS011;9455;54.302;10.124;2022-07-04T10:07:29;2.30;;;0.60;;
18651;SDS011;9455;54.302;10.124;2022-07-04T10:09:56;0.53;;;0.50;;
18651;SDS011;9455;54.302;10.124;2022-07-04T10:12:26;7.57;;;2.33;;
18651;SDS011;9455;54.302;10.124;2022-07-04T10:14:53;1.27;;;0.80;;
18651;SDS011;9455;54.302;10.124;2022-07-04T10:17:21;1.40;;;1.30;;
18651;SDS011;9455;54.302;10.124;2022-07-04T10:19:49;0.70;;;0.70;;
18651;SDS011;9455;54.302;10.124;2022-07-04T10:22:18;0.50;;;0.50;;
18651;SDS011;9455;54.302;10.124;2022-07-04T10:24:48;2.97;;;0.57;;
18651;SDS011;9455;54.302;10.124;2022-07-04T10:27:14;3.53;;;0.90;;
18651;SDS011;9455;54.302;10.124;2022-07-04T10:29:41;2.87;;;0.67;;
18651;SDS011;9455;54.302;10.124;2022-07-04T10:32:07;1.13;;;0.70;;
18651;SDS011;9455;54.302;10.124;2022-07-04T10:34:38;1.40;;;0.63;;
18651;SDS011;9455;54.302;10.124;2022-07-04T10:37:07;2.73;;;0.80;;
18651;SDS011;9455;54.302;10.124;2022-07-04T10:39:34;0.50;;;0.50;;
18651;SDS011;9455;54.302;10.124;2022-07-04T10:42:00;3.83;;;0.60;;
18651;SDS011;9455;54.302;10.124;2022-07-04T10:44:28;0.83;;;0.50;;
18651;SDS011;9455;54.302;10.124;2022-07-04T10:47:01;1.57;;;1.20;;
18651;SDS011;9455;54.302;10.124;2022-07-04T10:49:28;4.57;;;1.10;;
18651;SDS011;9455;54.302;10.124;2022-07-04T10:52:01;1.03;;;0.80;;
18651;SDS011;9455;54.302;10.124;2022-07-04T10:54:37;2.10;;;0.70;;
18651;SDS011;9455;54.302;10.124;2022-07-04T10:57:12;0.60;;;0.60;;
18651;SDS011;9455;54.302;10.124;2022-07-04T10:59:41;4.80;;;1.10;;
18651;SDS011;9455;54.302;10.124;2022-07-04T11:02:21;0.83;;;0.70;;
18651;SDS011;9455;54.302;10.124;2022-07-04T11:04:56;3.63;;;0.80;;
18651;SDS011;9455;54.302;10.124;2022-07-04T11:10:30;1.80;;;0.50;;
18651;SDS011;9455;54.302;10.124;2022-07-04T11:13:06;0.77;;;0.70;;
18651;SDS011;9455;54.302;10.124;2022-07-04T11:15:57;4.63;;;0.60;;
18651;SDS011;9455;54.302;10.124;2022-07-04T11:18:25;1.13;;;0.67;;
18651;SDS011;9455;54.302;10.124;2022-07-04T11:20:53;3.10;;;0.80;;
18651;SDS011;9455;54.302;10.124;2022-07-04T11:23:21;0.67;;;0.60;;
18651;SDS011;9455;54.302;10.124;2022-07-04T11:25:49;0.60;;;0.60;;
18651;SDS011;9455;54.302;10.124;2022-07-04T11:28:18;0.70;;;0.60;;
18651;SDS011;9455;54.302;10.124;2022-07-04T11:30:47;1.00;;;0.30;;
18651;SDS011;9455;54.302;10.124;2022-07-04T11:33:16;0.57;;;0.57;;
18651;SDS011;9455;54.302;10.124;2022-07-04T11:35:43;0.40;;;0.40;;
18651;SDS011;9455;54.302;10.124;2022-07-04T11:38:10;0.97;;;0.50;;
18651;SDS011;9455;54.302;10.124;2022-07-04T11:40:44;2.30;;;0.60;;
18651;SDS011;9455;54.302;10.124;2022-07-04T11:43:28;2.07;;;1.20;;
18651;SDS011;9455;54.302;10.124;2022-07-04T11:46:12;1.90;;;0.87;;
18651;SDS011;9455;54.302;10.124;2022-07-04T11:48:39;0.70;;;0.43;;
18651;SDS011;9455;54.302;10.124;2022-07-04T11:51:15;0.87;;;0.77;;
18651;SDS011;9455;54.302;10.124;2022-07-04T11:53:42;3.60;;;0.70;;
18651;SDS011;9455;54.302;10.124;2022-07-04T11:56:10;5.40;;;0.80;;
18651;SDS011;9455;54.302;10.124;2022-07-04T11:58:40;3.20;;;0.70;;
18651;SDS011;9455;54.302;10.124;2022-07-04T12:01:06;0.50;;;0.50;;
18651;SDS011;9455;54.302;10.124;2022-07-04T12:03:35;1.20;;;0.80;;
18651;SDS011;9455;54.302;10.124;2022-07-04T12:06:01;2.00;;;0.57;;
18651;SDS011;9455;54.302;10.124;2022-07-04T12:08:28;1.80;;;0.77;;
18651;SDS011;9455;54.302;10.124;2022-07-04T12:10:55;2.17;;;1.07;;
18651;SDS011;9455;54.302;10.124;2022-07-04T12:13:23;0.50;;;0.50;;
18651;SDS011;9455;54.302;10.124;2022-07-04T12:15:50;4.07;;;0.60;;
18651;SDS011;9455;54.302;10.124;2022-07-04T12:18:18;1.13;;;0.43;;
18651;SDS011;9455;54.302;10.124;2022-07-04T12:20:46;1.77;;;0.83;;
18651;SDS011;9455;54.302;10.124;2022-07-04T12:23:13;1.33;;;0.67;;
18651;SDS011;9455;54.302;10.124;2022-07-04T12:25:43;2.83;;;0.90;;
18651;SDS011;9455;54.302;10.124;2022-07-04T12:28:11;4.97;;;0.63;;
18651;SDS011;9455;54.302;10.124;2022-07-04T12:30:48;1.70;;;0.57;;
18651;SDS011;9455;54.302;10.124;2022-07-04T12:33:17;3.43;;;0.40;;
18651;SDS011;9455;54.302;10.124;2022-07-04T12:35:45;2.13;;;0.80;;
18651;SDS011;9455;54.302;10.124;2022-07-04T12:38:13;1.27;;;0.57;;
18651;SDS011;9455;54.302;10.124;2022-07-04T12:40:51;0.57;;;0.57;;
18651;SDS011;9455;54.302;10.124;2022-07-04T12:43:20;1.67;;;0.60;;
18651;SDS011;9455;54.302;10.124;2022-07-04T12:45:49;0.53;;;0.53;;
18651;SDS011;9455;54.302;10.124;2022-07-04T12:48:20;1.10;;;0.60;;
18651;SDS011;9455;54.302;10.124;2022-07-04T12:50:49;0.57;;;0.57;;
18651;SDS011;9455;54.302;10.124;2022-07-04T12:53:17;0.70;;;0.70;;
18651;SDS011;9455;54.302;10.124;2022-07-04T12:55:45;3.30;;;0.70;;
18651;SDS011;9455;54.302;10.124;2022-07-04T12:58:13;0.73;;;0.40;;
18651;SDS011;9455;54.302;10.124;2022-07-04T13:00:40;4.23;;;0.50;;
18651;SDS011;9455;54.302;10.124;2022-07-04T13:03:08;15.83;;;0.97;;
18651;SDS011;9455;54.302;10.124;2022-07-04T13:05:35;4.17;;;0.93;;
18651;SDS011;9455;54.302;10.124;2022-07-04T13:08:03;0.90;;;0.60;;
18651;SDS011;9455;54.302;10.124;2022-07-04T13:10:31;2.03;;;0.70;;
18651;SDS011;9455;54.302;10.124;2022-07-04T13:12:58;1.00;;;0.30;;
18651;SDS011;9455;54.302;10.124;2022-07-04T13:15:25;4.83;;;0.60;;
18651;SDS011;9455;54.302;10.124;2022-07-04T13:17:52;0.60;;;0.60;;
18651;SDS011;9455;54.302;10.124;2022-07-04T13:20:20;2.87;;;0.77;;
18651;SDS011;9455;54.302;10.124;2022-07-04T13:22:46;0.83;;;0.83;;
18651;SDS011;9455;54.302;10.124;2022-07-04T13:25:13;3.37;;;0.67;;
18651;SDS011;9455;54.302;10.124;2022-07-04T13:27:39;1.70;;;0.53;;
18651;SDS011;9455;54.302;10.124;2022-07-04T13:30:07;0.60;;;0.50;;
18651;SDS011;9455;54.302;10.124;2022-07-04T13:32:34;7.63;;;0.77;;
18651;SDS011;9455;54.302;10.124;2022-07-04T13:35:01;8.17;;;2.10;;
18651;SDS011;9455;54.302;10.124;2022-07-04T13:37:29;0.40;;;0.40;;
18651;SDS011;9455;54.302;10.124;2022-07-04T13:39:56;0.63;;;0.63;;
18651;SDS011;9455;54.302;10.124;2022-07-04T13:42:22;0.60;;;0.60;;
18651;SDS011;9455;54.302;10.124;2022-07-04T13:45:06;0.90;;;0.70;;
18651;SDS011;9455;54.302;10.124;2022-07-04T13:47:34;0.60;;;0.60;;
18651;SDS011;9455;54.302;10.124;2022-07-04T13:50:01;0.97;;;0.83;;
18651;SDS011;9455;54.302;10.124;2022-07-04T13:52:28;0.67;;;0.67;;
18651;SDS011;9455;54.302;10.124;2022-07-04T13:54:55;0.83;;;0.60;;
18651;SDS011;9455;54.302;10.124;2022-07-04T13:57:22;0.70;;;0.70;;
18651;SDS011;9455;54.302;10.124;2022-07-04T13:59:48;4.70;;;0.50;;
18651;SDS011;9455;54.302;10.124;2022-07-04T14:02:15;0.60;;;0.60;;
18651;SDS011;9455;54.302;10.124;2022-07-04T14:04:41;3.90;;;0.60;;
18651;SDS011;9455;54.302;10.124;2022-07-04T14:07:08;0.60;;;0.37;;
18651;SDS011;9455;54.302;10.124;2022-07-04T14:09:36;4.00;;;0.90;;
18651;SDS011;9455;54.302;10.124;2022-07-04T14:12:03;2.10;;;0.37;;
18651;SDS011;9455;54.302;10.124;2022-07-04T14:14:30;1.57;;;0.80;;
18651;SDS011;9455;54.302;10.124;2022-07-04T14:16:57;2.83;;;0.40;;
18651;SDS011;9455;54.302;10.124;2022-07-04T14:19:23;0.73;;;0.40;;
18651;SDS011;9455;54.302;10.124;2022-07-04T14:21:50;0.43;;;0.40;;
18651;SDS011;9455;54.302;10.124;2022-07-04T14:24:16;2.20;;;0.60;;
18651;SDS011;9455;54.302;10.124;2022-07-04T14:26:44;0.73;;;0.67;;
18651;SDS011;9455;54.302;10.124;2022-07-04T14:29:11;0.87;;;0.67;;
18651;SDS011;9455;54.302;10.124;2022-07-04T14:31:39;0.60;;;0.60;;
18651;SDS011;9455;54.302;10.124;2022-07-04T14:34:05;0.57;;;0.57;;
18651;SDS011;9455;54.302;10.124;2022-07-04T14:36:35;0.50;;;0.50;;
18651;SDS011;9455;54.302;10.124;2022-07-04T14:39:01;4.43;;;0.53;;
18651;SDS011;9455;54.302;10.124;2022-07-04T14:41:28;1.03;;;0.83;;
18651;SDS011;9455;54.302;10.124;2022-07-04T14:43:56;4.23;;;0.60;;
18651;SDS011;9455;54.302;10.124;2022-07-04T14:46:23;0.40;;;0.40;;
18651;SDS011;9455;54.302;10.124;2022-07-04T14:48:49;1.80;;;0.47;;
18651;SDS011;9455;54.302;10.124;2022-07-04T14:51:16;1.03;;;0.60;;
18651;SDS011;9455;54.302;10.124;2022-07-04T14:53:42;0.87;;;0.30;;
18651;SDS011;9455;54.302;10.124;2022-07-04T14:56:09;0.63;;;0.40;;